sensor_id;sensor_type;location;lat;lon;timestamp;P1;durP1;ratioP1;P2;durP2;ratioP2
55063;SDS011;40963;52.168;21.296;2023-03-01T00:01:16;117.32;;;42.58;;
55063;SDS011;40963;52.168;21.296;2023-03-01T00:03:43;107.03;;;35.50;;
55063;SDS011;40963;52.168;21.296;2023-03-01T00:06:09;90.88;;;34.00;;
55063;SDS011;40963;52.168;21.296;2023-03-01T00:08:34;107.10;;;39.65;;
55063;SDS011;40963;52.168;21.296;2023-03-01T00:11:01;124.70;;;42.47;;
55063;SDS011;40963;52.168;21.296;2023-03-01T00:13:36;130.77;;;42.88;;
55063;SDS011;40963;52.168;21.296;2023-03-01T00:16:06;122.63;;;44.97;;
55063;SDS011;40963;52.168;21.296;2023-03-01T00:18:33;62.00;;;24.25;;
55063;SDS011;40963;52.168;21.296;2023-03-01T00:20:59;118.47;;;40.88;;
55063;SDS011;40963;52.168;21.296;2023-03-01T00:23:26;75.70;;;29.77;;
55063;SDS011;40963;52.168;21.296;2023-03-01T00:25:52;119.88;;;42.50;;
55063;SDS011;40963;52.168;21.296;2023-03-01T00:28:17;126.70;;;46.58;;
55063;SDS011;40963;52.168;21.296;2023-03-01T00:30:44;146.77;;;49.13;;
55063;SDS011;40963;52.168;21.296;2023-03-01T00:33:10;124.50;;;44.38;;
55063;SDS011;40963;52.168;21.296;2023-03-01T00:35:36;103.57;;;37.22;;
55063;SDS011;40963;52.168;21.296;2023-03-01T00:38:02;102.57;;;37.20;;
55063;SDS011;40963;52.168;21.296;2023-03-01T00:40:29;210.18;;;59.00;;
55063;SDS011;40963;52.168;21.296;2023-03-01T00:42:56;120.70;;;42.85;;
55063;SDS011;40963;52.168;21.296;2023-03-01T00:45:22;98.78;;;36.22;;
55063;SDS011;40963;52.168;21.296;2023-03-01T00:47:49;92.30;;;35.05;;
55063;SDS011;40963;52.168;21.296;2023-03-01T00:50:16;90.50;;;32.35;;
55063;SDS011;40963;52.168;21.296;2023-03-01T00:52:43;112.55;;;35.22;;
55063;SDS011;40963;52.168;21.296;2023-03-01T00:55:09;100.88;;;34.53;;
55063;SDS011;40963;52.168;21.296;2023-03-01T00:57:35;81.53;;;32.38;;
55063;SDS011;40963;52.168;21.296;2023-03-01T01:00:01;102.82;;;35.83;;
55063;SDS011;40963;52.168;21.296;2023-03-01T01:02:29;89.90;;;31.48;;
55063;SDS011;40963;52.168;21.296;2023-03-01T01:04:54;94.47;;;35.35;;
55063;SDS011;40963;52.168;21.296;2023-03-01T01:07:20;79.38;;;30.92;;
55063;SDS011;40963;52.168;21.296;2023-03-01T01:09:46;90.40;;;34.42;;
55063;SDS011;40963;52.168;21.296;2023-03-01T01:12:12;106.68;;;33.70;;
55063;SDS011;40963;52.168;21.296;2023-03-01T01:14:38;101.63;;;35.63;;
55063;SDS011;40963;52.168;21.296;2023-03-01T01:17:03;88.03;;;32.78;;
55063;SDS011;40963;52.168;21.296;2023-03-01T01:19:29;90.97;;;32.83;;
55063;SDS011;40963;52.168;21.296;2023-03-01T01:21:55;111.00;;;38.97;;
55063;SDS011;40963;52.168;21.296;2023-03-01T01:24:21;99.00;;;36.65;;
55063;SDS011;40963;52.168;21.296;2023-03-01T01:26:47;114.55;;;38.22;;
55063;SDS011;40963;52.168;21.296;2023-03-01T01:29:12;113.78;;;40.72;;
55063;SDS011;40963;52.168;21.296;2023-03-01T01:31:39;107.97;;;40.65;;
55063;SDS011;40963;52.168;21.296;2023-03-01T01:34:06;106.50;;;38.05;;
55063;SDS011;40963;52.168;21.296;2023-03-01T01:36:33;117.68;;;40.53;;
55063;SDS011;40963;52.168;21.296;2023-03-01T01:39:00;101.32;;;38.33;;
55063;SDS011;40963;52.168;21.296;2023-03-01T01:41:27;100.75;;;36.42;;
55063;SDS011;40963;52.168;21.296;2023-03-01T01:46:37;100.20;;;34.53;;
55063;SDS011;40963;52.168;21.296;2023-03-01T01:51:57;98.93;;;33.90;;
55063;SDS011;40963;52.168;21.296;2023-03-01T01:54:47;99.63;;;32.88;;
55063;SDS011;40963;52.168;21.296;2023-03-01T01:57:15;91.30;;;34.05;;
55063;SDS011;40963;52.168;21.296;2023-03-01T01:59:45;106.70;;;36.83;;
55063;SDS011;40963;52.168;21.296;2023-03-01T02:02:15;100.53;;;35.40;;
55063;SDS011;40963;52.168;21.296;2023-03-01T02:04:41;97.53;;;35.55;;
55063;SDS011;40963;52.168;21.296;2023-03-01T02:07:14;100.40;;;35.92;;
55063;SDS011;40963;52.168;21.296;2023-03-01T02:09:43;95.35;;;32.85;;
55063;SDS011;40963;52.168;21.296;2023-03-01T02:12:12;107.47;;;33.70;;
55063;SDS011;40963;52.168;21.296;2023-03-01T02:14:42;104.68;;;34.90;;
55063;SDS011;40963;52.168;21.296;2023-03-01T02:17:08;100.70;;;36.72;;
55063;SDS011;40963;52.168;21.296;2023-03-01T02:19:54;102.38;;;33.33;;
55063;SDS011;40963;52.168;21.296;2023-03-01T02:22:33;102.55;;;34.90;;
55063;SDS011;40963;52.168;21.296;2023-03-01T02:30:32;94.97;;;34.00;;
55063;SDS011;40963;52.168;21.296;2023-03-01T02:32:59;102.90;;;35.88;;
55063;SDS011;40963;52.168;21.296;2023-03-01T02:35:37;107.13;;;35.88;;
55063;SDS011;40963;52.168;21.296;2023-03-01T02:38:03;116.22;;;37.95;;
55063;SDS011;40963;52.168;21.296;2023-03-01T02:40:33;100.32;;;37.80;;
55063;SDS011;40963;52.168;21.296;2023-03-01T02:43:00;110.57;;;37.50;;
55063;SDS011;40963;52.168;21.296;2023-03-01T02:45:30;89.03;;;35.53;;
55063;SDS011;40963;52.168;21.296;2023-03-01T02:47:57;117.28;;;37.88;;
55063;SDS011;40963;52.168;21.296;2023-03-01T02:53:01;108.38;;;35.47;;
55063;SDS011;40963;52.168;21.296;2023-03-01T02:55:36;90.78;;;30.42;;
55063;SDS011;40963;52.168;21.296;2023-03-01T02:58:02;101.50;;;33.20;;
55063;SDS011;40963;52.168;21.296;2023-03-01T03:00:31;90.53;;;34.63;;
55063;SDS011;40963;52.168;21.296;2023-03-01T03:03:04;112.97;;;36.28;;
55063;SDS011;40963;52.168;21.296;2023-03-01T03:05:30;103.45;;;34.20;;
55063;SDS011;40963;52.168;21.296;2023-03-01T03:07:57;99.82;;;32.67;;
55063;SDS011;40963;52.168;21.296;2023-03-01T03:10:26;88.60;;;32.70;;
55063;SDS011;40963;52.168;21.296;2023-03-01T03:13:01;103.60;;;32.80;;
55063;SDS011;40963;52.168;21.296;2023-03-01T03:15:28;88.00;;;29.65;;
55063;SDS011;40963;52.168;21.296;2023-03-01T03:17:55;84.32;;;29.67;;
55063;SDS011;40963;52.168;21.296;2023-03-01T03:20:23;86.72;;;31.02;;
55063;SDS011;40963;52.168;21.296;2023-03-01T03:22:52;72.63;;;27.20;;
55063;SDS011;40963;52.168;21.296;2023-03-01T03:25:20;75.63;;;28.15;;
55063;SDS011;40963;52.168;21.296;2023-03-01T03:27:47;73.85;;;26.63;;
55063;SDS011;40963;52.168;21.296;2023-03-01T03:30:19;73.13;;;26.48;;
55063;SDS011;40963;52.168;21.296;2023-03-01T03:32:46;74.45;;;28.23;;
55063;SDS011;40963;52.168;21.296;2023-03-01T03:35:25;72.47;;;26.58;;
55063;SDS011;40963;52.168;21.296;2023-03-01T03:37:59;77.93;;;28.40;;
55063;SDS011;40963;52.168;21.296;2023-03-01T03:40:26;80.07;;;30.48;;
55063;SDS011;40963;52.168;21.296;2023-03-01T03:42:58;80.35;;;29.45;;
55063;SDS011;40963;52.168;21.296;2023-03-01T03:45:23;73.43;;;29.75;;
55063;SDS011;40963;52.168;21.296;2023-03-01T03:47:49;81.47;;;28.55;;
55063;SDS011;40963;52.168;21.296;2023-03-01T03:50:16;81.65;;;27.67;;
55063;SDS011;40963;52.168;21.296;2023-03-01T03:52:42;71.32;;;27.80;;
55063;SDS011;40963;52.168;21.296;2023-03-01T03:55:08;90.38;;;29.90;;
55063;SDS011;40963;52.168;21.296;2023-03-01T03:57:39;79.88;;;26.77;;
55063;SDS011;40963;52.168;21.296;2023-03-01T04:00:06;65.10;;;26.52;;
55063;SDS011;40963;52.168;21.296;2023-03-01T04:02:39;94.90;;;27.73;;
55063;SDS011;40963;52.168;21.296;2023-03-01T04:05:06;70.65;;;24.67;;
55063;SDS011;40963;52.168;21.296;2023-03-01T04:07:33;87.25;;;29.95;;
55063;SDS011;40963;52.168;21.296;2023-03-01T04:09:59;77.53;;;28.50;;
55063;SDS011;40963;52.168;21.296;2023-03-01T04:12:25;81.57;;;28.33;;
55063;SDS011;40963;52.168;21.296;2023-03-01T04:14:51;85.88;;;29.63;;
55063;SDS011;40963;52.168;21.296;2023-03-01T04:17:17;74.28;;;28.52;;
55063;SDS011;40963;52.168;21.296;2023-03-01T04:19:43;76.80;;;26.92;;
55063;SDS011;40963;52.168;21.296;2023-03-01T04:22:13;79.35;;;26.05;;
55063;SDS011;40963;52.168;21.296;2023-03-01T04:24:42;77.13;;;28.00;;
55063;SDS011;40963;52.168;21.296;2023-03-01T04:27:08;78.70;;;26.50;;
55063;SDS011;40963;52.168;21.296;2023-03-01T04:29:34;89.63;;;28.42;;
55063;SDS011;40963;52.168;21.296;2023-03-01T04:31:59;76.93;;;27.10;;
55063;SDS011;40963;52.168;21.296;2023-03-01T04:34:25;79.43;;;26.70;;
55063;SDS011;40963;52.168;21.296;2023-03-01T04:36:54;71.93;;;27.45;;
55063;SDS011;40963;52.168;21.296;2023-03-01T04:39:20;78.90;;;28.13;;
55063;SDS011;40963;52.168;21.296;2023-03-01T04:41:46;69.30;;;26.00;;
55063;SDS011;40963;52.168;21.296;2023-03-01T04:44:12;86.75;;;29.33;;
55063;SDS011;40963;52.168;21.296;2023-03-01T04:46:38;89.00;;;29.98;;
55063;SDS011;40963;52.168;21.296;2023-03-01T04:49:04;91.85;;;28.45;;
55063;SDS011;40963;52.168;21.296;2023-03-01T04:51:30;83.32;;;27.63;;
55063;SDS011;40963;52.168;21.296;2023-03-01T04:53:57;74.22;;;27.05;;
55063;SDS011;40963;52.168;21.296;2023-03-01T04:56:25;64.82;;;23.58;;
55063;SDS011;40963;52.168;21.296;2023-03-01T04:58:53;65.88;;;23.67;;
55063;SDS011;40963;52.168;21.296;2023-03-01T05:01:19;68.25;;;26.55;;
55063;SDS011;40963;52.168;21.296;2023-03-01T05:03:46;67.88;;;25.30;;
55063;SDS011;40963;52.168;21.296;2023-03-01T05:06:14;57.25;;;22.33;;
55063;SDS011;40963;52.168;21.296;2023-03-01T05:08:41;70.30;;;24.48;;
55063;SDS011;40963;52.168;21.296;2023-03-01T05:11:08;57.85;;;23.05;;
55063;SDS011;40963;52.168;21.296;2023-03-01T05:13:35;73.10;;;26.45;;
55063;SDS011;40963;52.168;21.296;2023-03-01T05:16:03;67.88;;;24.42;;
55063;SDS011;40963;52.168;21.296;2023-03-01T05:18:30;62.05;;;26.00;;
55063;SDS011;40963;52.168;21.296;2023-03-01T05:21:04;80.60;;;27.45;;
55063;SDS011;40963;52.168;21.296;2023-03-01T05:23:32;72.22;;;26.20;;
55063;SDS011;40963;52.168;21.296;2023-03-01T05:25:59;73.03;;;25.13;;
55063;SDS011;40963;52.168;21.296;2023-03-01T05:28:25;55.65;;;22.73;;
55063;SDS011;40963;52.168;21.296;2023-03-01T05:30:53;69.85;;;24.65;;
55063;SDS011;40963;52.168;21.296;2023-03-01T05:33:18;65.63;;;24.05;;
55063;SDS011;40963;52.168;21.296;2023-03-01T05:35:46;65.63;;;23.40;;
55063;SDS011;40963;52.168;21.296;2023-03-01T05:38:13;65.75;;;22.83;;
55063;SDS011;40963;52.168;21.296;2023-03-01T05:40:40;60.53;;;24.38;;
55063;SDS011;40963;52.168;21.296;2023-03-01T05:43:07;71.13;;;25.42;;
55063;SDS011;40963;52.168;21.296;2023-03-01T05:45:32;70.55;;;24.92;;
55063;SDS011;40963;52.168;21.296;2023-03-01T05:48:01;75.93;;;27.48;;
55063;SDS011;40963;52.168;21.296;2023-03-01T05:50:28;69.85;;;24.80;;
55063;SDS011;40963;52.168;21.296;2023-03-01T05:52:59;77.30;;;24.58;;
55063;SDS011;40963;52.168;21.296;2023-03-01T05:55:26;62.47;;;26.23;;
55063;SDS011;40963;52.168;21.296;2023-03-01T05:57:52;79.13;;;25.88;;
55063;SDS011;40963;52.168;21.296;2023-03-01T06:00:19;72.85;;;25.95;;
55063;SDS011;40963;52.168;21.296;2023-03-01T06:02:49;70.70;;;23.50;;
55063;SDS011;40963;52.168;21.296;2023-03-01T06:05:16;77.32;;;26.90;;
55063;SDS011;40963;52.168;21.296;2023-03-01T06:07:42;74.05;;;24.83;;
55063;SDS011;40963;52.168;21.296;2023-03-01T06:10:09;77.78;;;25.98;;
55063;SDS011;40963;52.168;21.296;2023-03-01T06:12:36;73.50;;;25.65;;
55063;SDS011;40963;52.168;21.296;2023-03-01T06:15:03;64.22;;;23.27;;
55063;SDS011;40963;52.168;21.296;2023-03-01T06:17:30;70.10;;;23.63;;
55063;SDS011;40963;52.168;21.296;2023-03-01T06:20:00;68.20;;;24.95;;
55063;SDS011;40963;52.168;21.296;2023-03-01T06:22:26;69.15;;;24.10;;
55063;SDS011;40963;52.168;21.296;2023-03-01T06:24:52;72.40;;;25.92;;
55063;SDS011;40963;52.168;21.296;2023-03-01T06:27:17;68.57;;;24.98;;
55063;SDS011;40963;52.168;21.296;2023-03-01T06:29:43;70.45;;;26.48;;
55063;SDS011;40963;52.168;21.296;2023-03-01T06:32:09;62.13;;;23.45;;
55063;SDS011;40963;52.168;21.296;2023-03-01T06:34:35;66.75;;;24.70;;
55063;SDS011;40963;52.168;21.296;2023-03-01T06:37:00;66.93;;;24.23;;
55063;SDS011;40963;52.168;21.296;2023-03-01T06:39:31;73.63;;;27.08;;
55063;SDS011;40963;52.168;21.296;2023-03-01T06:41:57;65.03;;;24.65;;
55063;SDS011;40963;52.168;21.296;2023-03-01T06:44:23;59.38;;;23.05;;
55063;SDS011;40963;52.168;21.296;2023-03-01T06:46:49;69.07;;;24.67;;
55063;SDS011;40963;52.168;21.296;2023-03-01T06:49:15;67.90;;;25.33;;
55063;SDS011;40963;52.168;21.296;2023-03-01T06:51:42;80.35;;;23.90;;
55063;SDS011;40963;52.168;21.296;2023-03-01T06:54:09;54.05;;;21.77;;
55063;SDS011;40963;52.168;21.296;2023-03-01T06:56:35;62.03;;;22.40;;
55063;SDS011;40963;52.168;21.296;2023-03-01T06:59:01;65.45;;;23.58;;
55063;SDS011;40963;52.168;21.296;2023-03-01T07:01:27;66.03;;;25.17;;
55063;SDS011;40963;52.168;21.296;2023-03-01T07:03:54;60.65;;;22.30;;
55063;SDS011;40963;52.168;21.296;2023-03-01T07:06:20;66.22;;;25.15;;
55063;SDS011;40963;52.168;21.296;2023-03-01T07:08:46;71.05;;;23.35;;
55063;SDS011;40963;52.168;21.296;2023-03-01T07:11:12;69.20;;;26.05;;
55063;SDS011;40963;52.168;21.296;2023-03-01T07:13:37;73.40;;;24.95;;
55063;SDS011;40963;52.168;21.296;2023-03-01T07:16:03;69.07;;;25.42;;
55063;SDS011;40963;52.168;21.296;2023-03-01T07:18:29;62.63;;;21.42;;
55063;SDS011;40963;52.168;21.296;2023-03-01T07:20:55;82.57;;;26.55;;
55063;SDS011;40963;52.168;21.296;2023-03-01T07:23:20;65.53;;;23.88;;
55063;SDS011;40963;52.168;21.296;2023-03-01T07:25:52;63.33;;;18.52;;
55063;SDS011;40963;52.168;21.296;2023-03-01T07:28:18;56.42;;;23.05;;
55063;SDS011;40963;52.168;21.296;2023-03-01T07:30:45;56.95;;;21.77;;
55063;SDS011;40963;52.168;21.296;2023-03-01T07:33:10;61.08;;;24.17;;
55063;SDS011;40963;52.168;21.296;2023-03-01T07:35:36;60.63;;;22.38;;
55063;SDS011;40963;52.168;21.296;2023-03-01T07:38:02;68.88;;;22.38;;
55063;SDS011;40963;52.168;21.296;2023-03-01T07:40:27;63.38;;;24.05;;
55063;SDS011;40963;52.168;21.296;2023-03-01T07:42:57;58.47;;;21.75;;
55063;SDS011;40963;52.168;21.296;2023-03-01T07:45:23;64.50;;;23.80;;
55063;SDS011;40963;52.168;21.296;2023-03-01T07:47:50;58.30;;;21.48;;
55063;SDS011;40963;52.168;21.296;2023-03-01T07:50:17;60.67;;;22.42;;
55063;SDS011;40963;52.168;21.296;2023-03-01T07:52:44;55.20;;;23.85;;
55063;SDS011;40963;52.168;21.296;2023-03-01T07:55:11;56.10;;;21.38;;
55063;SDS011;40963;52.168;21.296;2023-03-01T07:57:37;52.63;;;20.77;;
55063;SDS011;40963;52.168;21.296;2023-03-01T08:00:03;47.72;;;19.02;;
55063;SDS011;40963;52.168;21.296;2023-03-01T08:02:30;47.58;;;19.10;;
55063;SDS011;40963;52.168;21.296;2023-03-01T08:04:56;68.20;;;21.83;;
55063;SDS011;40963;52.168;21.296;2023-03-01T08:07:21;38.28;;;14.40;;
55063;SDS011;40963;52.168;21.296;2023-03-01T08:09:47;47.55;;;17.60;;
55063;SDS011;40963;52.168;21.296;2023-03-01T08:12:13;38.72;;;15.48;;
55063;SDS011;40963;52.168;21.296;2023-03-01T08:14:41;60.38;;;22.02;;
55063;SDS011;40963;52.168;21.296;2023-03-01T08:17:06;39.80;;;14.90;;
55063;SDS011;40963;52.168;21.296;2023-03-01T08:19:32;48.15;;;21.38;;
55063;SDS011;40963;52.168;21.296;2023-03-01T08:21:59;41.88;;;18.17;;
55063;SDS011;40963;52.168;21.296;2023-03-01T08:24:28;48.97;;;18.52;;
55063;SDS011;40963;52.168;21.296;2023-03-01T08:26:54;36.72;;;14.63;;
55063;SDS011;40963;52.168;21.296;2023-03-01T08:29:20;46.67;;;18.85;;
55063;SDS011;40963;52.168;21.296;2023-03-01T08:31:47;40.45;;;17.98;;
55063;SDS011;40963;52.168;21.296;2023-03-01T08:34:14;34.13;;;13.15;;
55063;SDS011;40963;52.168;21.296;2023-03-01T08:36:42;51.08;;;19.75;;
55063;SDS011;40963;52.168;21.296;2023-03-01T08:39:10;46.15;;;17.50;;
55063;SDS011;40963;52.168;21.296;2023-03-01T08:41:37;45.40;;;15.85;;
55063;SDS011;40963;52.168;21.296;2023-03-01T08:44:04;47.92;;;17.27;;
55063;SDS011;40963;52.168;21.296;2023-03-01T08:46:31;47.65;;;17.58;;
55063;SDS011;40963;52.168;21.296;2023-03-01T08:49:03;37.70;;;14.50;;
55063;SDS011;40963;52.168;21.296;2023-03-01T08:51:30;42.50;;;16.05;;
55063;SDS011;40963;52.168;21.296;2023-03-01T08:53:57;38.50;;;14.88;;
55063;SDS011;40963;52.168;21.296;2023-03-01T08:56:23;40.03;;;16.90;;
55063;SDS011;40963;52.168;21.296;2023-03-01T08:58:49;36.72;;;14.05;;
55063;SDS011;40963;52.168;21.296;2023-03-01T09:01:15;27.00;;;11.25;;
55063;SDS011;40963;52.168;21.296;2023-03-01T09:03:42;29.48;;;11.23;;
55063;SDS011;40963;52.168;21.296;2023-03-01T09:06:10;14.43;;;7.43;;
55063;SDS011;40963;52.168;21.296;2023-03-01T09:08:36;28.23;;;11.40;;
55063;SDS011;40963;52.168;21.296;2023-03-01T09:11:03;28.17;;;11.50;;
55063;SDS011;40963;52.168;21.296;2023-03-01T09:13:30;24.38;;;9.82;;
55063;SDS011;40963;52.168;21.296;2023-03-01T09:15:56;30.27;;;9.07;;
55063;SDS011;40963;52.168;21.296;2023-03-01T09:18:26;24.25;;;11.05;;
55063;SDS011;40963;52.168;21.296;2023-03-01T09:20:52;24.15;;;11.38;;
55063;SDS011;40963;52.168;21.296;2023-03-01T09:23:20;25.83;;;10.80;;
55063;SDS011;40963;52.168;21.296;2023-03-01T09:25:46;22.45;;;10.50;;
55063;SDS011;40963;52.168;21.296;2023-03-01T09:28:12;30.42;;;10.45;;
55063;SDS011;40963;52.168;21.296;2023-03-01T09:30:37;31.42;;;12.02;;
55063;SDS011;40963;52.168;21.296;2023-03-01T09:33:03;31.20;;;12.63;;
55063;SDS011;40963;52.168;21.296;2023-03-01T09:35:29;27.48;;;12.68;;
55063;SDS011;40963;52.168;21.296;2023-03-01T09:37:55;32.08;;;12.52;;
55063;SDS011;40963;52.168;21.296;2023-03-01T09:40:21;36.28;;;10.93;;
55063;SDS011;40963;52.168;21.296;2023-03-01T09:42:54;13.40;;;7.05;;
55063;SDS011;40963;52.168;21.296;2023-03-01T09:45:33;41.33;;;13.77;;
55063;SDS011;40963;52.168;21.296;2023-03-01T09:48:00;33.45;;;13.07;;
55063;SDS011;40963;52.168;21.296;2023-03-01T09:50:32;27.52;;;11.13;;
55063;SDS011;40963;52.168;21.296;2023-03-01T09:55:43;33.55;;;14.07;;
55063;SDS011;40963;52.168;21.296;2023-03-01T10:01:11;34.72;;;14.02;;
55063;SDS011;40963;52.168;21.296;2023-03-01T10:03:43;32.70;;;12.48;;
55063;SDS011;40963;52.168;21.296;2023-03-01T10:06:19;19.00;;;10.43;;
55063;SDS011;40963;52.168;21.296;2023-03-01T10:08:58;30.90;;;13.00;;
55063;SDS011;40963;52.168;21.296;2023-03-01T10:11:27;25.30;;;10.38;;
55063;SDS011;40963;52.168;21.296;2023-03-01T10:16:37;28.10;;;10.50;;
55063;SDS011;40963;52.168;21.296;2023-03-01T10:19:12;19.30;;;9.70;;
55063;SDS011;40963;52.168;21.296;2023-03-01T10:21:45;26.13;;;11.30;;
55063;SDS011;40963;52.168;21.296;2023-03-01T10:24:14;22.17;;;10.57;;
55063;SDS011;40963;52.168;21.296;2023-03-01T10:29:13;29.10;;;10.38;;
55063;SDS011;40963;52.168;21.296;2023-03-01T10:31:43;21.48;;;10.32;;
55063;SDS011;40963;52.168;21.296;2023-03-01T10:34:16;28.70;;;11.30;;
55063;SDS011;40963;52.168;21.296;2023-03-01T10:36:44;16.05;;;7.82;;
55063;SDS011;40963;52.168;21.296;2023-03-01T10:39:15;30.17;;;12.00;;
55063;SDS011;40963;52.168;21.296;2023-03-01T10:42:01;25.77;;;10.43;;
55063;SDS011;40963;52.168;21.296;2023-03-01T10:47:13;22.45;;;10.45;;
55063;SDS011;40963;52.168;21.296;2023-03-01T10:52:25;30.48;;;11.38;;
55063;SDS011;40963;52.168;21.296;2023-03-01T10:55:01;31.83;;;13.90;;
55063;SDS011;40963;52.168;21.296;2023-03-01T10:58:16;31.48;;;13.48;;
55063;SDS011;40963;52.168;21.296;2023-03-01T11:00:51;30.25;;;11.93;;
55063;SDS011;40963;52.168;21.296;2023-03-01T11:03:29;27.85;;;11.60;;
55063;SDS011;40963;52.168;21.296;2023-03-01T11:11:06;33.17;;;13.13;;
55063;SDS011;40963;52.168;21.296;2023-03-01T11:16:41;25.92;;;10.50;;
55063;SDS011;40963;52.168;21.296;2023-03-01T11:21:58;31.55;;;11.30;;
55063;SDS011;40963;52.168;21.296;2023-03-01T11:24:26;28.23;;;10.82;;
55063;SDS011;40963;52.168;21.296;2023-03-01T11:27:30;26.80;;;10.68;;
55063;SDS011;40963;52.168;21.296;2023-03-01T11:30:02;21.00;;;10.20;;
55063;SDS011;40963;52.168;21.296;2023-03-01T11:38:36;23.27;;;10.43;;
55063;SDS011;40963;52.168;21.296;2023-03-01T11:44:03;23.65;;;10.23;;
55063;SDS011;40963;52.168;21.296;2023-03-01T11:52:42;30.85;;;11.35;;
55063;SDS011;40963;52.168;21.296;2023-03-01T11:55:31;29.42;;;11.45;;
55063;SDS011;40963;52.168;21.296;2023-03-01T11:58:18;23.58;;;10.68;;
55063;SDS011;40963;52.168;21.296;2023-03-01T12:01:51;28.17;;;10.02;;
55063;SDS011;40963;52.168;21.296;2023-03-01T12:14:57;23.25;;;10.15;;
55063;SDS011;40963;52.168;21.296;2023-03-01T12:23:25;20.40;;;9.25;;
55063;SDS011;40963;52.168;21.296;2023-03-01T12:26:32;23.17;;;10.30;;
55063;SDS011;40963;52.168;21.296;2023-03-01T12:29:21;21.23;;;10.18;;
55063;SDS011;40963;52.168;21.296;2023-03-01T12:32:00;30.70;;;12.52;;
55063;SDS011;40963;52.168;21.296;2023-03-01T12:43:21;20.50;;;10.10;;
55063;SDS011;40963;52.168;21.296;2023-03-01T12:46:15;21.38;;;10.25;;
55063;SDS011;40963;52.168;21.296;2023-03-01T12:49:17;27.08;;;12.20;;
55063;SDS011;40963;52.168;21.296;2023-03-01T12:51:53;22.95;;;10.85;;
55063;SDS011;40963;52.168;21.296;2023-03-01T12:54:39;19.30;;;7.80;;
55063;SDS011;40963;52.168;21.296;2023-03-01T12:57:09;25.35;;;10.68;;
55063;SDS011;40963;52.168;21.296;2023-03-01T12:59:51;24.98;;;10.77;;
55063;SDS011;40963;52.168;21.296;2023-03-01T13:02:59;21.73;;;11.00;;
55063;SDS011;40963;52.168;21.296;2023-03-01T13:05:33;18.88;;;9.43;;
55063;SDS011;40963;52.168;21.296;2023-03-01T13:08:20;21.45;;;9.57;;
55063;SDS011;40963;52.168;21.296;2023-03-01T13:11:04;17.80;;;9.00;;
55063;SDS011;40963;52.168;21.296;2023-03-01T13:13:32;20.77;;;7.00;;
55063;SDS011;40963;52.168;21.296;2023-03-01T13:15:57;26.80;;;10.32;;
55063;SDS011;40963;52.168;21.296;2023-03-01T13:19:05;20.90;;;9.93;;
55063;SDS011;40963;52.168;21.296;2023-03-01T13:22:01;25.88;;;8.73;;
55063;SDS011;40963;52.168;21.296;2023-03-01T13:25:01;17.40;;;8.82;;
55063;SDS011;40963;52.168;21.296;2023-03-01T13:27:38;18.98;;;9.02;;
55063;SDS011;40963;52.168;21.296;2023-03-01T13:30:12;17.98;;;8.80;;
55063;SDS011;40963;52.168;21.296;2023-03-01T13:35:51;14.60;;;7.30;;
55063;SDS011;40963;52.168;21.296;2023-03-01T13:38:36;18.90;;;7.32;;
55063;SDS011;40963;52.168;21.296;2023-03-01T13:44:22;15.70;;;7.07;;
55063;SDS011;40963;52.168;21.296;2023-03-01T13:46:50;11.82;;;6.05;;
55063;SDS011;40963;52.168;21.296;2023-03-01T13:49:43;14.93;;;6.10;;
55063;SDS011;40963;52.168;21.296;2023-03-01T13:52:28;16.58;;;7.80;;
55063;SDS011;40963;52.168;21.296;2023-03-01T13:55:47;16.13;;;6.20;;
55063;SDS011;40963;52.168;21.296;2023-03-01T13:57:53;16.48;;;7.32;;
55063;SDS011;40963;52.168;21.296;2023-03-01T14:03:02;15.35;;;7.35;;
55063;SDS011;40963;52.168;21.296;2023-03-01T14:05:31;15.80;;;7.95;;
55063;SDS011;40963;52.168;21.296;2023-03-01T14:07:57;22.70;;;9.60;;
55063;SDS011;40963;52.168;21.296;2023-03-01T14:10:25;22.25;;;9.35;;
55063;SDS011;40963;52.168;21.296;2023-03-01T14:13:01;16.05;;;8.80;;
55063;SDS011;40963;52.168;21.296;2023-03-01T14:15:43;15.45;;;7.80;;
55063;SDS011;40963;52.168;21.296;2023-03-01T14:18:36;25.73;;;9.05;;
55063;SDS011;40963;52.168;21.296;2023-03-01T14:21:12;18.13;;;8.85;;
55063;SDS011;40963;52.168;21.296;2023-03-01T14:23:40;19.27;;;9.38;;
55063;SDS011;40963;52.168;21.296;2023-03-01T14:26:07;23.58;;;9.25;;
55063;SDS011;40963;52.168;21.296;2023-03-01T14:28:34;21.05;;;9.80;;
55063;SDS011;40963;52.168;21.296;2023-03-01T14:31:05;19.05;;;9.05;;
55063;SDS011;40963;52.168;21.296;2023-03-01T14:33:55;27.42;;;8.82;;
55063;SDS011;40963;52.168;21.296;2023-03-01T14:36:25;21.90;;;10.77;;
55063;SDS011;40963;52.168;21.296;2023-03-01T14:38:52;24.65;;;9.27;;
55063;SDS011;40963;52.168;21.296;2023-03-01T14:41:20;18.38;;;9.10;;
55063;SDS011;40963;52.168;21.296;2023-03-01T14:43:58;20.00;;;8.80;;
55063;SDS011;40963;52.168;21.296;2023-03-01T14:46:34;21.67;;;9.55;;
55063;SDS011;40963;52.168;21.296;2023-03-01T14:49:03;18.77;;;8.77;;
55063;SDS011;40963;52.168;21.296;2023-03-01T14:51:52;18.02;;;8.90;;
55063;SDS011;40963;52.168;21.296;2023-03-01T14:54:29;24.42;;;9.60;;
55063;SDS011;40963;52.168;21.296;2023-03-01T14:57:22;21.38;;;9.18;;
55063;SDS011;40963;52.168;21.296;2023-03-01T14:59:50;20.13;;;9.07;;
55063;SDS011;40963;52.168;21.296;2023-03-01T15:02:19;20.95;;;8.32;;
55063;SDS011;40963;52.168;21.296;2023-03-01T15:04:52;20.23;;;9.77;;
55063;SDS011;40963;52.168;21.296;2023-03-01T15:07:22;17.98;;;9.77;;
55063;SDS011;40963;52.168;21.296;2023-03-01T15:09:53;19.38;;;9.48;;
55063;SDS011;40963;52.168;21.296;2023-03-01T15:15:18;22.65;;;9.57;;
55063;SDS011;40963;52.168;21.296;2023-03-01T15:17:54;21.25;;;10.40;;
55063;SDS011;40963;52.168;21.296;2023-03-01T15:20:22;29.83;;;10.57;;
55063;SDS011;40963;52.168;21.296;2023-03-01T15:22:51;20.73;;;9.70;;
55063;SDS011;40963;52.168;21.296;2023-03-01T15:25:24;25.15;;;10.00;;
55063;SDS011;40963;52.168;21.296;2023-03-01T15:27:52;22.35;;;9.70;;
55063;SDS011;40963;52.168;21.296;2023-03-01T15:30:23;19.40;;;8.85;;
55063;SDS011;40963;52.168;21.296;2023-03-01T15:35:45;16.27;;;8.25;;
55063;SDS011;40963;52.168;21.296;2023-03-01T15:44:18;22.80;;;10.50;;
55063;SDS011;40963;52.168;21.296;2023-03-01T15:46:51;20.48;;;9.57;;
55063;SDS011;40963;52.168;21.296;2023-03-01T15:49:24;22.13;;;10.30;;
55063;SDS011;40963;52.168;21.296;2023-03-01T15:51:51;28.55;;;10.65;;
55063;SDS011;40963;52.168;21.296;2023-03-01T15:54:20;22.85;;;9.25;;
55063;SDS011;40963;52.168;21.296;2023-03-01T15:56:49;22.17;;;9.73;;
55063;SDS011;40963;52.168;21.296;2023-03-01T15:59:16;23.65;;;10.23;;
55063;SDS011;40963;52.168;21.296;2023-03-01T16:01:42;23.55;;;10.38;;
55063;SDS011;40963;52.168;21.296;2023-03-01T16:04:12;23.23;;;10.88;;
55063;SDS011;40963;52.168;21.296;2023-03-01T16:06:45;29.92;;;10.93;;
55063;SDS011;40963;52.168;21.296;2023-03-01T16:09:23;34.43;;;12.17;;